sensor_id;sensor_type;location;lat;lon;timestamp;P1;durP1;ratioP1;P2;durP2;ratioP2
75050;SDS011;63628;47.656;11.310;2023-05-07T00:00:54;2.00;;;1.35;;
75050;SDS011;63628;47.656;11.310;2023-05-07T00:03:21;1.60;;;1.50;;
75050;SDS011;63628;47.656;11.310;2023-05-07T00:05:49;2.05;;;1.65;;
75050;SDS011;63628;47.656;11.310;2023-05-07T00:08:16;2.38;;;1.80;;
75050;SDS011;63628;47.656;11.310;2023-05-07T00:10:43;6.78;;;2.40;;
75050;SDS011;63628;47.656;11.310;2023-05-07T00:13:09;2.13;;;1.60;;
75050;SDS011;63628;47.656;11.310;2023-05-07T00:15:36;1.92;;;1.73;;
75050;SDS011;63628;47.656;11.310;2023-05-07T00:18:03;1.92;;;1.80;;
75050;SDS011;63628;47.656;11.310;2023-05-07T00:20:30;1.73;;;1.63;;
75050;SDS011;63628;47.656;11.310;2023-05-07T00:22:58;2.83;;;2.25;;
75050;SDS011;63628;47.656;11.310;2023-05-07T00:25:24;1.70;;;1.58;;
75050;SDS011;63628;47.656;11.310;2023-05-07T00:27:51;2.75;;;1.63;;
75050;SDS011;63628;47.656;11.310;2023-05-07T00:30:18;1.77;;;1.50;;
75050;SDS011;63628;47.656;11.310;2023-05-07T00:32:44;1.70;;;1.60;;
75050;SDS011;63628;47.656;11.310;2023-05-07T00:35:11;2.58;;;1.90;;
75050;SDS011;63628;47.656;11.310;2023-05-07T00:37:38;1.88;;;1.58;;
75050;SDS011;63628;47.656;11.310;2023-05-07T00:40:07;2.33;;;1.75;;
75050;SDS011;63628;47.656;11.310;2023-05-07T00:42:35;2.00;;;1.65;;
75050;SDS011;63628;47.656;11.310;2023-05-07T00:45:04;1.80;;;1.52;;
75050;SDS011;63628;47.656;11.310;2023-05-07T00:47:31;1.95;;;1.75;;
75050;SDS011;63628;47.656;11.310;2023-05-07T00:49:58;2.22;;;2.03;;
75050;SDS011;63628;47.656;11.310;2023-05-07T00:52:25;1.60;;;1.50;;
75050;SDS011;63628;47.656;11.310;2023-05-07T00:54:52;2.80;;;1.73;;
75050;SDS011;63628;47.656;11.310;2023-05-07T00:57:20;2.28;;;1.48;;
75050;SDS011;63628;47.656;11.310;2023-05-07T00:59:48;1.80;;;1.70;;
75050;SDS011;63628;47.656;11.310;2023-05-07T01:02:14;1.70;;;1.60;;
75050;SDS011;63628;47.656;11.310;2023-05-07T01:04:41;1.60;;;1.50;;
75050;SDS011;63628;47.656;11.310;2023-05-07T01:07:08;1.92;;;1.63;;
75050;SDS011;63628;47.656;11.310;2023-05-07T01:09:35;1.70;;;1.60;;
75050;SDS011;63628;47.656;11.310;2023-05-07T01:12:03;2.80;;;1.45;;
75050;SDS011;63628;47.656;11.310;2023-05-07T01:14:32;1.58;;;1.48;;
75050;SDS011;63628;47.656;11.310;2023-05-07T01:16:59;1.95;;;1.77;;
75050;SDS011;63628;47.656;11.310;2023-05-07T01:19:26;2.30;;;1.80;;
75050;SDS011;63628;47.656;11.310;2023-05-07T01:21:55;1.70;;;1.60;;
75050;SDS011;63628;47.656;11.310;2023-05-07T01:24:30;2.72;;;1.80;;
75050;SDS011;63628;47.656;11.310;2023-05-07T01:26:57;2.08;;;1.88;;
75050;SDS011;63628;47.656;11.310;2023-05-07T01:29:24;2.00;;;1.63;;
75050;SDS011;63628;47.656;11.310;2023-05-07T01:31:51;2.72;;;1.92;;
75050;SDS011;63628;47.656;11.310;2023-05-07T01:34:18;1.58;;;1.42;;
75050;SDS011;63628;47.656;11.310;2023-05-07T01:36:47;3.33;;;1.98;;
75050;SDS011;63628;47.656;11.310;2023-05-07T01:39:15;1.67;;;1.58;;
75050;SDS011;63628;47.656;11.310;2023-05-07T01:41:44;1.92;;;1.50;;
75050;SDS011;63628;47.656;11.310;2023-05-07T01:46:39;2.50;;;1.85;;
75050;SDS011;63628;47.656;11.310;2023-05-07T01:49:06;1.90;;;1.67;;
75050;SDS011;63628;47.656;11.310;2023-05-07T01:51:33;1.85;;;1.75;;
75050;SDS011;63628;47.656;11.310;2023-05-07T01:54:00;1.83;;;1.73;;
75050;SDS011;63628;47.656;11.310;2023-05-07T01:56:27;1.60;;;1.45;;
75050;SDS011;63628;47.656;11.310;2023-05-07T01:58:55;1.90;;;1.80;;
75050;SDS011;63628;47.656;11.310;2023-05-07T02:01:22;2.17;;;1.98;;
75050;SDS011;63628;47.656;11.310;2023-05-07T02:03:48;2.95;;;1.60;;
75050;SDS011;63628;47.656;11.310;2023-05-07T02:06:15;2.15;;;1.95;;
75050;SDS011;63628;47.656;11.310;2023-05-07T02:08:42;1.75;;;1.58;;
75050;SDS011;63628;47.656;11.310;2023-05-07T02:11:09;1.65;;;1.55;;
75050;SDS011;63628;47.656;11.310;2023-05-07T02:13:36;1.48;;;1.38;;
75050;SDS011;63628;47.656;11.310;2023-05-07T02:16:04;2.05;;;1.85;;
75050;SDS011;63628;47.656;11.310;2023-05-07T02:18:31;1.73;;;1.60;;
75050;SDS011;63628;47.656;11.310;2023-05-07T02:20:58;3.15;;;1.55;;
75050;SDS011;63628;47.656;11.310;2023-05-07T02:23:25;1.73;;;1.50;;
75050;SDS011;63628;47.656;11.310;2023-05-07T02:25:51;2.78;;;1.60;;
75050;SDS011;63628;47.656;11.310;2023-05-07T02:28:18;1.42;;;1.30;;
75050;SDS011;63628;47.656;11.310;2023-05-07T02:30:44;1.73;;;1.63;;
75050;SDS011;63628;47.656;11.310;2023-05-07T02:33:12;2.25;;;1.08;;
75050;SDS011;63628;47.656;11.310;2023-05-07T02:35:40;2.65;;;1.70;;
75050;SDS011;63628;47.656;11.310;2023-05-07T02:38:07;2.05;;;1.52;;
75050;SDS011;63628;47.656;11.310;2023-05-07T02:40:33;2.00;;;1.77;;
75050;SDS011;63628;47.656;11.310;2023-05-07T02:43:04;2.28;;;1.70;;
75050;SDS011;63628;47.656;11.310;2023-05-07T02:45:31;1.98;;;1.77;;
75050;SDS011;63628;47.656;11.310;2023-05-07T02:47:59;1.90;;;1.70;;
75050;SDS011;63628;47.656;11.310;2023-05-07T02:50:27;1.58;;;1.40;;
75050;SDS011;63628;47.656;11.310;2023-05-07T02:52:53;1.63;;;1.52;;
75050;SDS011;63628;47.656;11.310;2023-05-07T02:55:20;1.60;;;1.50;;
75050;SDS011;63628;47.656;11.310;2023-05-07T02:57:47;1.63;;;1.35;;
75050;SDS011;63628;47.656;11.310;2023-05-07T03:00:14;1.63;;;1.40;;
75050;SDS011;63628;47.656;11.310;2023-05-07T03:02:42;1.40;;;1.30;;
75050;SDS011;63628;47.656;11.310;2023-05-07T03:05:09;1.77;;;1.27;;
75050;SDS011;63628;47.656;11.310;2023-05-07T03:07:38;1.60;;;1.50;;
75050;SDS011;63628;47.656;11.310;2023-05-07T03:10:05;1.60;;;1.50;;
75050;SDS011;63628;47.656;11.310;2023-05-07T03:12:32;1.70;;;1.60;;
75050;SDS011;63628;47.656;11.310;2023-05-07T03:14:59;1.70;;;1.40;;
75050;SDS011;63628;47.656;11.310;2023-05-07T03:17:25;1.50;;;1.40;;
75050;SDS011;63628;47.656;11.310;2023-05-07T03:19:52;2.42;;;1.90;;
75050;SDS011;63628;47.656;11.310;2023-05-07T03:22:19;1.35;;;1.25;;
75050;SDS011;63628;47.656;11.310;2023-05-07T03:24:47;4.15;;;1.45;;
75050;SDS011;63628;47.656;11.310;2023-05-07T03:27:13;1.67;;;1.58;;
75050;SDS011;63628;47.656;11.310;2023-05-07T03:29:40;1.45;;;1.35;;
75050;SDS011;63628;47.656;11.310;2023-05-07T03:32:07;1.77;;;1.50;;
75050;SDS011;63628;47.656;11.310;2023-05-07T03:34:33;1.45;;;1.35;;
75050;SDS011;63628;47.656;11.310;2023-05-07T03:37:00;1.35;;;1.25;;
75050;SDS011;63628;47.656;11.310;2023-05-07T03:39:27;2.58;;;1.55;;
75050;SDS011;63628;47.656;11.310;2023-05-07T03:41:55;1.20;;;1.10;;
75050;SDS011;63628;47.656;11.310;2023-05-07T03:44:21;1.40;;;1.30;;
75050;SDS011;63628;47.656;11.310;2023-05-07T03:46:48;2.17;;;1.60;;
75050;SDS011;63628;47.656;11.310;2023-05-07T03:49:17;1.55;;;1.45;;
75050;SDS011;63628;47.656;11.310;2023-05-07T03:51:43;1.27;;;1.17;;
75050;SDS011;63628;47.656;11.310;2023-05-07T03:54:10;1.42;;;1.33;;
75050;SDS011;63628;47.656;11.310;2023-05-07T03:56:37;2.33;;;1.80;;
75050;SDS011;63628;47.656;11.310;2023-05-07T03:59:05;2.03;;;1.83;;
75050;SDS011;63628;47.656;11.310;2023-05-07T04:01:31;1.80;;;1.60;;
75050;SDS011;63628;47.656;11.310;2023-05-07T04:03:58;1.55;;;1.45;;
75050;SDS011;63628;47.656;11.310;2023-05-07T04:06:25;1.85;;;1.73;;
75050;SDS011;63628;47.656;11.310;2023-05-07T04:08:51;1.70;;;1.60;;
75050;SDS011;63628;47.656;11.310;2023-05-07T04:11:18;1.80;;;1.70;;
75050;SDS011;63628;47.656;11.310;2023-05-07T04:13:45;1.98;;;1.73;;
75050;SDS011;63628;47.656;11.310;2023-05-07T04:16:13;1.90;;;1.73;;
75050;SDS011;63628;47.656;11.310;2023-05-07T04:18:39;1.75;;;1.48;;
75050;SDS011;63628;47.656;11.310;2023-05-07T04:21:06;1.60;;;1.50;;
75050;SDS011;63628;47.656;11.310;2023-05-07T04:23:40;1.75;;;1.60;;
75050;SDS011;63628;47.656;11.310;2023-05-07T04:26:06;1.90;;;1.60;;
75050;SDS011;63628;47.656;11.310;2023-05-07T04:28:33;1.45;;;1.30;;
75050;SDS011;63628;47.656;11.310;2023-05-07T04:31:00;1.67;;;1.30;;
75050;SDS011;63628;47.656;11.310;2023-05-07T04:33:28;1.70;;;1.60;;
75050;SDS011;63628;47.656;11.310;2023-05-07T04:35:54;1.92;;;1.45;;
75050;SDS011;63628;47.656;11.310;2023-05-07T04:38:21;1.63;;;1.50;;
75050;SDS011;63628;47.656;11.310;2023-05-07T04:40:49;2.15;;;1.70;;
75050;SDS011;63628;47.656;11.310;2023-05-07T04:43:16;1.60;;;1.50;;
75050;SDS011;63628;47.656;11.310;2023-05-07T04:45:43;1.52;;;1.42;;
75050;SDS011;63628;47.656;11.310;2023-05-07T04:48:10;1.83;;;1.70;;
75050;SDS011;63628;47.656;11.310;2023-05-07T04:50:38;1.50;;;1.40;;
75050;SDS011;63628;47.656;11.310;2023-05-07T04:53:04;1.48;;;1.38;;
75050;SDS011;63628;47.656;11.310;2023-05-07T04:55:33;1.60;;;1.50;;
75050;SDS011;63628;47.656;11.310;2023-05-07T04:58:00;1.50;;;1.40;;
75050;SDS011;63628;47.656;11.310;2023-05-07T05:00:28;1.77;;;1.67;;
75050;SDS011;63628;47.656;11.310;2023-05-07T05:02:54;1.58;;;1.48;;
75050;SDS011;63628;47.656;11.310;2023-05-07T05:05:21;1.50;;;1.40;;
75050;SDS011;63628;47.656;11.310;2023-05-07T05:07:49;3.30;;;1.85;;
75050;SDS011;63628;47.656;11.310;2023-05-07T05:10:17;2.38;;;2.17;;
75050;SDS011;63628;47.656;11.310;2023-05-07T05:12:44;3.45;;;2.30;;
75050;SDS011;63628;47.656;11.310;2023-05-07T05:15:11;2.20;;;2.00;;
75050;SDS011;63628;47.656;11.310;2023-05-07T05:17:38;1.77;;;1.50;;
75050;SDS011;63628;47.656;11.310;2023-05-07T05:20:05;2.55;;;2.33;;
75050;SDS011;63628;47.656;11.310;2023-05-07T05:22:33;3.15;;;2.42;;
75050;SDS011;63628;47.656;11.310;2023-05-07T05:25:01;4.50;;;2.80;;
75050;SDS011;63628;47.656;11.310;2023-05-07T05:27:28;5.82;;;3.67;;
75050;SDS011;63628;47.656;11.310;2023-05-07T05:29:54;3.47;;;3.17;;
75050;SDS011;63628;47.656;11.310;2023-05-07T05:32:21;3.72;;;3.28;;
75050;SDS011;63628;47.656;11.310;2023-05-07T05:34:48;3.95;;;3.20;;
75050;SDS011;63628;47.656;11.310;2023-05-07T05:37:14;4.15;;;3.17;;
75050;SDS011;63628;47.656;11.310;2023-05-07T05:39:41;4.25;;;3.70;;
75050;SDS011;63628;47.656;11.310;2023-05-07T05:42:10;9.60;;;3.50;;
75050;SDS011;63628;47.656;11.310;2023-05-07T05:44:36;4.43;;;3.40;;
75050;SDS011;63628;47.656;11.310;2023-05-07T05:47:03;3.90;;;3.47;;
75050;SDS011;63628;47.656;11.310;2023-05-07T05:49:30;5.28;;;3.28;;
75050;SDS011;63628;47.656;11.310;2023-05-07T05:51:56;4.10;;;3.25;;
75050;SDS011;63628;47.656;11.310;2023-05-07T05:54:23;6.70;;;3.15;;
75050;SDS011;63628;47.656;11.310;2023-05-07T05:56:50;3.30;;;3.00;;
75050;SDS011;63628;47.656;11.310;2023-05-07T05:59:18;6.75;;;3.90;;
75050;SDS011;63628;47.656;11.310;2023-05-07T06:01:45;3.42;;;3.13;;
75050;SDS011;63628;47.656;11.310;2023-05-07T06:04:11;3.85;;;3.47;;
75050;SDS011;63628;47.656;11.310;2023-05-07T06:06:38;5.32;;;3.85;;
75050;SDS011;63628;47.656;11.310;2023-05-07T06:09:05;5.75;;;3.72;;
75050;SDS011;63628;47.656;11.310;2023-05-07T06:11:31;7.00;;;3.72;;
75050;SDS011;63628;47.656;11.310;2023-05-07T06:13:58;3.20;;;2.90;;
75050;SDS011;63628;47.656;11.310;2023-05-07T06:16:26;8.38;;;3.20;;
75050;SDS011;63628;47.656;11.310;2023-05-07T06:18:53;4.32;;;3.28;;
75050;SDS011;63628;47.656;11.310;2023-05-07T06:21:19;5.32;;;3.80;;
75050;SDS011;63628;47.656;11.310;2023-05-07T06:23:46;5.22;;;3.63;;
75050;SDS011;63628;47.656;11.310;2023-05-07T06:26:13;3.42;;;3.08;;
75050;SDS011;63628;47.656;11.310;2023-05-07T06:28:39;5.93;;;3.72;;
75050;SDS011;63628;47.656;11.310;2023-05-07T06:31:12;5.03;;;3.63;;
75050;SDS011;63628;47.656;11.310;2023-05-07T06:33:41;4.45;;;4.05;;
75050;SDS011;63628;47.656;11.310;2023-05-07T06:36:08;4.50;;;4.10;;
75050;SDS011;63628;47.656;11.310;2023-05-07T06:38:35;4.72;;;3.75;;
75050;SDS011;63628;47.656;11.310;2023-05-07T06:41:02;6.88;;;4.18;;
75050;SDS011;63628;47.656;11.310;2023-05-07T06:43:29;6.57;;;3.95;;
75050;SDS011;63628;47.656;11.310;2023-05-07T06:45:55;6.05;;;4.15;;
75050;SDS011;63628;47.656;11.310;2023-05-07T06:48:22;7.28;;;4.28;;
75050;SDS011;63628;47.656;11.310;2023-05-07T06:50:50;4.18;;;3.80;;
75050;SDS011;63628;47.656;11.310;2023-05-07T06:53:17;4.10;;;3.53;;
75050;SDS011;63628;47.656;11.310;2023-05-07T06:55:43;4.20;;;3.80;;
75050;SDS011;63628;47.656;11.310;2023-05-07T06:58:10;6.18;;;3.50;;
75050;SDS011;63628;47.656;11.310;2023-05-07T07:00:37;4.97;;;3.72;;
75050;SDS011;63628;47.656;11.310;2023-05-07T07:03:03;3.58;;;3.13;;
75050;SDS011;63628;47.656;11.310;2023-05-07T07:05:30;3.28;;;2.75;;
75050;SDS011;63628;47.656;11.310;2023-05-07T07:07:58;4.32;;;3.30;;
75050;SDS011;63628;47.656;11.310;2023-05-07T07:10:25;6.22;;;4.10;;
75050;SDS011;63628;47.656;11.310;2023-05-07T07:12:51;6.10;;;3.50;;
75050;SDS011;63628;47.656;11.310;2023-05-07T07:15:19;3.85;;;3.55;;
75050;SDS011;63628;47.656;11.310;2023-05-07T07:17:47;11.23;;;4.32;;
75050;SDS011;63628;47.656;11.310;2023-05-07T07:20:15;5.60;;;3.95;;
75050;SDS011;63628;47.656;11.310;2023-05-07T07:22:42;4.57;;;3.00;;
75050;SDS011;63628;47.656;11.310;2023-05-07T07:25:10;2.72;;;2.53;;
75050;SDS011;63628;47.656;11.310;2023-05-07T07:27:37;3.27;;;2.97;;
75050;SDS011;63628;47.656;11.310;2023-05-07T07:30:04;3.60;;;2.83;;
75050;SDS011;63628;47.656;11.310;2023-05-07T07:32:34;2.42;;;2.22;;
75050;SDS011;63628;47.656;11.310;2023-05-07T07:35:00;2.90;;;2.60;;
75050;SDS011;63628;47.656;11.310;2023-05-07T07:37:27;3.75;;;3.35;;
75050;SDS011;63628;47.656;11.310;2023-05-07T07:39:54;5.97;;;3.15;;
75050;SDS011;63628;47.656;11.310;2023-05-07T07:42:22;3.78;;;3.03;;
75050;SDS011;63628;47.656;11.310;2023-05-07T07:44:49;4.30;;;2.60;;
75050;SDS011;63628;47.656;11.310;2023-05-07T07:47:16;3.22;;;2.85;;
75050;SDS011;63628;47.656;11.310;2023-05-07T07:49:42;5.57;;;3.10;;
75050;SDS011;63628;47.656;11.310;2023-05-07T07:52:09;2.33;;;1.90;;
75050;SDS011;63628;47.656;11.310;2023-05-07T07:54:36;4.60;;;2.78;;
75050;SDS011;63628;47.656;11.310;2023-05-07T07:57:02;5.95;;;2.70;;
75050;SDS011;63628;47.656;11.310;2023-05-07T07:59:30;2.35;;;2.15;;
75050;SDS011;63628;47.656;11.310;2023-05-07T08:01:57;2.78;;;2.55;;
75050;SDS011;63628;47.656;11.310;2023-05-07T08:04:24;4.15;;;2.72;;
75050;SDS011;63628;47.656;11.310;2023-05-07T08:06:50;3.90;;;2.45;;
75050;SDS011;63628;47.656;11.310;2023-05-07T08:09:17;3.55;;;2.50;;
75050;SDS011;63628;47.656;11.310;2023-05-07T08:11:43;3.28;;;2.17;;
75050;SDS011;63628;47.656;11.310;2023-05-07T08:14:10;3.10;;;2.40;;
75050;SDS011;63628;47.656;11.310;2023-05-07T08:16:39;4.85;;;2.88;;
75050;SDS011;63628;47.656;11.310;2023-05-07T08:19:05;2.55;;;2.33;;
75050;SDS011;63628;47.656;11.310;2023-05-07T08:21:32;3.10;;;2.80;;
75050;SDS011;63628;47.656;11.310;2023-05-07T08:23:59;3.33;;;2.60;;
75050;SDS011;63628;47.656;11.310;2023-05-07T08:26:26;2.38;;;2.17;;
75050;SDS011;63628;47.656;11.310;2023-05-07T08:28:56;2.40;;;2.20;;
75050;SDS011;63628;47.656;11.310;2023-05-07T08:31:25;3.47;;;2.20;;
75050;SDS011;63628;47.656;11.310;2023-05-07T08:33:53;3.40;;;2.08;;
75050;SDS011;63628;47.656;11.310;2023-05-07T08:36:20;1.80;;;1.70;;
75050;SDS011;63628;47.656;11.310;2023-05-07T08:38:46;2.65;;;2.03;;
75050;SDS011;63628;47.656;11.310;2023-05-07T08:41:13;2.97;;;2.40;;
75050;SDS011;63628;47.656;11.310;2023-05-07T08:43:40;3.35;;;2.55;;
75050;SDS011;63628;47.656;11.310;2023-05-07T08:46:08;4.60;;;2.00;;
75050;SDS011;63628;47.656;11.310;2023-05-07T08:48:36;2.90;;;2.40;;
75050;SDS011;63628;47.656;11.310;2023-05-07T08:51:05;3.15;;;2.00;;
75050;SDS011;63628;47.656;11.310;2023-05-07T08:53:31;2.03;;;1.83;;
75050;SDS011;63628;47.656;11.310;2023-05-07T08:55:59;3.22;;;1.63;;
75050;SDS011;63628;47.656;11.310;2023-05-07T08:58:26;1.50;;;1.40;;
75050;SDS011;63628;47.656;11.310;2023-05-07T09:00:52;2.28;;;1.42;;
75050;SDS011;63628;47.656;11.310;2023-05-07T09:05:48;1.63;;;1.10;;
75050;SDS011;63628;47.656;11.310;2023-05-07T09:08:16;2.88;;;1.60;;
75050;SDS011;63628;47.656;11.310;2023-05-07T09:10:43;4.35;;;1.90;;
75050;SDS011;63628;47.656;11.310;2023-05-07T09:13:10;1.90;;;1.60;;
75050;SDS011;63628;47.656;11.310;2023-05-07T09:15:39;1.70;;;1.58;;
75050;SDS011;63628;47.656;11.310;2023-05-07T09:18:06;3.60;;;1.40;;
75050;SDS011;63628;47.656;11.310;2023-05-07T09:20:33;1.52;;;1.38;;
75050;SDS011;63628;47.656;11.310;2023-05-07T09:22:59;1.90;;;1.40;;
75050;SDS011;63628;47.656;11.310;2023-05-07T09:25:31;3.80;;;1.90;;
75050;SDS011;63628;47.656;11.310;2023-05-07T09:27:59;1.90;;;1.70;;
75050;SDS011;63628;47.656;11.310;2023-05-07T09:30:27;2.47;;;1.70;;
75050;SDS011;63628;47.656;11.310;2023-05-07T09:32:55;1.60;;;1.48;;
75050;SDS011;63628;47.656;11.310;2023-05-07T09:35:22;3.47;;;1.70;;
75050;SDS011;63628;47.656;11.310;2023-05-07T09:37:52;2.28;;;1.38;;
75050;SDS011;63628;47.656;11.310;2023-05-07T09:40:22;3.17;;;1.85;;
75050;SDS011;63628;47.656;11.310;2023-05-07T09:42:51;2.03;;;1.90;;
75050;SDS011;63628;47.656;11.310;2023-05-07T09:45:21;1.85;;;1.75;;
75050;SDS011;63628;47.656;11.310;2023-05-07T09:47:49;1.80;;;1.70;;
75050;SDS011;63628;47.656;11.310;2023-05-07T09:50:19;1.88;;;1.60;;
75050;SDS011;63628;47.656;11.310;2023-05-07T09:52:51;2.10;;;1.90;;
75050;SDS011;63628;47.656;11.310;2023-05-07T09:55:19;2.30;;;1.23;;
75050;SDS011;63628;47.656;11.310;2023-05-07T09:57:47;2.08;;;1.88;;
75050;SDS011;63628;47.656;11.310;2023-05-07T10:00:15;1.77;;;1.65;;
75050;SDS011;63628;47.656;11.310;2023-05-07T10:02:45;3.33;;;1.67;;
75050;SDS011;63628;47.656;11.310;2023-05-07T10:05:15;2.70;;;1.65;;
75050;SDS011;63628;47.656;11.310;2023-05-07T10:07:43;2.92;;;2.03;;
75050;SDS011;63628;47.656;11.310;2023-05-07T10:10:11;3.25;;;1.70;;
75050;SDS011;63628;47.656;11.310;2023-05-07T10:12:38;1.67;;;1.50;;
75050;SDS011;63628;47.656;11.310;2023-05-07T10:15:07;2.80;;;1.43;;
75050;SDS011;63628;47.656;11.310;2023-05-07T10:17:36;2.83;;;1.58;;
75050;SDS011;63628;47.656;11.310;2023-05-07T10:20:05;4.30;;;1.38;;
75050;SDS011;63628;47.656;11.310;2023-05-07T10:22:37;2.20;;;1.17;;
75050;SDS011;63628;47.656;11.310;2023-05-07T10:25:06;2.30;;;1.40;;
75050;SDS011;63628;47.656;11.310;2023-05-07T10:27:40;4.53;;;1.25;;
75050;SDS011;63628;47.656;11.310;2023-05-07T10:30:12;4.25;;;1.50;;
75050;SDS011;63628;47.656;11.310;2023-05-07T10:32:49;2.70;;;1.60;;
75050;SDS011;63628;47.656;11.310;2023-05-07T10:35:17;2.72;;;1.50;;
75050;SDS011;63628;47.656;11.310;2023-05-07T10:37:48;1.85;;;1.25;;
75050;SDS011;63628;47.656;11.310;2023-05-07T10:40:15;3.45;;;1.58;;
75050;SDS011;63628;47.656;11.310;2023-05-07T10:42:53;1.80;;;1.20;;
75050;SDS011;63628;47.656;11.310;2023-05-07T10:45:21;1.92;;;1.38;;
75050;SDS011;63628;47.656;11.310;2023-05-07T10:50:54;1.63;;;1.27;;
75050;SDS011;63628;47.656;11.310;2023-05-07T10:53:48;2.53;;;1.23;;
75050;SDS011;63628;47.656;11.310;2023-05-07T10:56:24;2.20;;;1.40;;
75050;SDS011;63628;47.656;11.310;2023-05-07T10:58:52;3.15;;;1.02;;
75050;SDS011;63628;47.656;11.310;2023-05-07T11:04:17;1.52;;;0.98;;
75050;SDS011;63628;47.656;11.310;2023-05-07T11:10:01;3.92;;;1.00;;
75050;SDS011;63628;47.656;11.310;2023-05-07T11:12:47;1.67;;;1.27;;
75050;SDS011;63628;47.656;11.310;2023-05-07T11:15:34;2.38;;;1.38;;
75050;SDS011;63628;47.656;11.310;2023-05-07T11:18:19;2.85;;;1.20;;
75050;SDS011;63628;47.656;11.310;2023-05-07T11:20:48;3.33;;;1.30;;
75050;SDS011;63628;47.656;11.310;2023-05-07T11:26:42;2.10;;;0.90;;
75050;SDS011;63628;47.656;11.310;2023-05-07T11:29:11;3.00;;;1.10;;
75050;SDS011;63628;47.656;11.310;2023-05-07T11:31:38;1.88;;;1.15;;
75050;SDS011;63628;47.656;11.310;2023-05-07T11:34:06;1.58;;;1.48;;
75050;SDS011;63628;47.656;11.310;2023-05-07T11:36:35;1.25;;;1.15;;
75050;SDS011;63628;47.656;11.310;2023-05-07T11:39:22;2.03;;;1.00;;
75050;SDS011;63628;47.656;11.310;2023-05-07T11:41:50;1.38;;;1.05;;
75050;SDS011;63628;47.656;11.310;2023-05-07T11:44:18;1.25;;;1.15;;
75050;SDS011;63628;47.656;11.310;2023-05-07T11:46:45;1.05;;;1.00;;
75050;SDS011;63628;47.656;11.310;2023-05-07T11:49:12;2.38;;;1.10;;
75050;SDS011;63628;47.656;11.310;2023-05-07T11:51:40;3.75;;;1.40;;
75050;SDS011;63628;47.656;11.310;2023-05-07T11:54:08;1.85;;;1.10;;
75050;SDS011;63628;47.656;11.310;2023-05-07T11:56:37;1.55;;;1.40;;
75050;SDS011;63628;47.656;11.310;2023-05-07T11:59:04;3.67;;;1.35;;
75050;SDS011;63628;47.656;11.310;2023-05-07T12:01:31;2.15;;;0.98;;
75050;SDS011;63628;47.656;11.310;2023-05-07T12:03:58;2.20;;;1.50;;
75050;SDS011;63628;47.656;11.310;2023-05-07T12:06:24;3.30;;;1.35;;
75050;SDS011;63628;47.656;11.310;2023-05-07T12:08:53;3.05;;;1.00;;
75050;SDS011;63628;47.656;11.310;2023-05-07T12:11:24;5.13;;;1.77;;
75050;SDS011;63628;47.656;11.310;2023-05-07T12:13:53;1.20;;;0.90;;
75050;SDS011;63628;47.656;11.310;2023-05-07T12:16:24;2.30;;;1.27;;
75050;SDS011;63628;47.656;11.310;2023-05-07T12:18:53;2.38;;;1.10;;
75050;SDS011;63628;47.656;11.310;2023-05-07T12:21:21;2.20;;;1.33;;
75050;SDS011;63628;47.656;11.310;2023-05-07T12:23:48;3.22;;;1.05;;
75050;SDS011;63628;47.656;11.310;2023-05-07T12:26:16;1.63;;;1.40;;
75050;SDS011;63628;47.656;11.310;2023-05-07T12:28:43;2.53;;;1.05;;
75050;SDS011;63628;47.656;11.310;2023-05-07T12:31:09;3.30;;;1.17;;
75050;SDS011;63628;47.656;11.310;2023-05-07T12:33:36;1.95;;;1.38;;
75050;SDS011;63628;47.656;11.310;2023-05-07T12:36:04;1.40;;;1.30;;
75050;SDS011;63628;47.656;11.310;2023-05-07T12:38:36;3.17;;;1.40;;
75050;SDS011;63628;47.656;11.310;2023-05-07T12:41:05;2.20;;;1.05;;
75050;SDS011;63628;47.656;11.310;2023-05-07T12:43:35;2.22;;;1.10;;
75050;SDS011;63628;47.656;11.310;2023-05-07T12:46:03;1.67;;;1.25;;
75050;SDS011;63628;47.656;11.310;2023-05-07T12:48:31;1.98;;;1.10;;
75050;SDS011;63628;47.656;11.310;2023-05-07T12:50:59;4.22;;;1.63;;
75050;SDS011;63628;47.656;11.310;2023-05-07T12:53:27;3.17;;;1.42;;
75050;SDS011;63628;47.656;11.310;2023-05-07T12:55:54;2.85;;;1.40;;
75050;SDS011;63628;47.656;11.310;2023-05-07T12:58:24;2.58;;;1.27;;
75050;SDS011;63628;47.656;11.310;2023-05-07T13:00:54;7.07;;;1.88;;
75050;SDS011;63628;47.656;11.310;2023-05-07T13:03:26;1.58;;;1.42;;
75050;SDS011;63628;47.656;11.310;2023-05-07T13:05:54;1.40;;;1.23;;
75050;SDS011;63628;47.656;11.310;2023-05-07T13:08:25;5.10;;;1.30;;
75050;SDS011;63628;47.656;11.310;2023-05-07T13:10:53;2.25;;;1.30;;
75050;SDS011;63628;47.656;11.310;2023-05-07T13:13:19;1.58;;;1.40;;
75050;SDS011;63628;47.656;11.310;2023-05-07T13:15:47;3.63;;;1.48;;
75050;SDS011;63628;47.656;11.310;2023-05-07T13:18:15;2.00;;;1.00;;
75050;SDS011;63628;47.656;11.310;2023-05-07T13:20:42;1.40;;;1.30;;
75050;SDS011;63628;47.656;11.310;2023-05-07T13:23:08;1.10;;;0.95;;
75050;SDS011;63628;47.656;11.310;2023-05-07T13:25:35;2.35;;;1.42;;
75050;SDS011;63628;47.656;11.310;2023-05-07T13:28:04;2.00;;;1.80;;
75050;SDS011;63628;47.656;11.310;2023-05-07T13:30:36;1.92;;;1.38;;
75050;SDS011;63628;47.656;11.310;2023-05-07T13:33:03;2.00;;;1.70;;
75050;SDS011;63628;47.656;11.310;2023-05-07T13:35:31;1.70;;;1.60;;
75050;SDS011;63628;47.656;11.310;2023-05-07T13:37:59;1.73;;;1.58;;
75050;SDS011;63628;47.656;11.310;2023-05-07T13:40:25;1.90;;;1.45;;
75050;SDS011;63628;47.656;11.310;2023-05-07T13:42:52;1.83;;;1.65;;
75050;SDS011;63628;47.656;11.310;2023-05-07T13:45:19;1.20;;;1.10;;
75050;SDS011;63628;47.656;11.310;2023-05-07T13:47:46;2.45;;;1.40;;
75050;SDS011;63628;47.656;11.310;2023-05-07T13:50:15;3.13;;;1.73;;
75050;SDS011;63628;47.656;11.310;2023-05-07T13:52:43;2.55;;;1.92;;
75050;SDS011;63628;47.656;11.310;2023-05-07T13:55:17;3.22;;;1.58;;
75050;SDS011;63628;47.656;11.310;2023-05-07T13:57:44;2.85;;;1.10;;
75050;SDS011;63628;47.656;11.310;2023-05-07T14:00:11;1.73;;;1.48;;
75050;SDS011;63628;47.656;11.310;2023-05-07T14:02:38;1.75;;;1.30;;
75050;SDS011;63628;47.656;11.310;2023-05-07T14:05:06;2.72;;;1.27;;
75050;SDS011;63628;47.656;11.310;2023-05-07T14:07:33;3.47;;;1.15;;
75050;SDS011;63628;47.656;11.310;2023-05-07T14:10:01;3.35;;;1.98;;
75050;SDS011;63628;47.656;11.310;2023-05-07T14:12:28;2.70;;;1.17;;
75050;SDS011;63628;47.656;11.310;2023-05-07T14:14:55;3.30;;;1.40;;
75050;SDS011;63628;47.656;11.310;2023-05-07T14:17:22;2.45;;;1.58;;
75050;SDS011;63628;47.656;11.310;2023-05-07T14:19:51;4.47;;;1.52;;
75050;SDS011;63628;47.656;11.310;2023-05-07T14:22:20;3.15;;;1.02;;
75050;SDS011;63628;47.656;11.310;2023-05-07T14:24:48;1.80;;;1.00;;
75050;SDS011;63628;47.656;11.310;2023-05-07T14:27:32;2.08;;;1.48;;
75050;SDS011;63628;47.656;11.310;2023-05-07T14:29:59;6.18;;;1.58;;
75050;SDS011;63628;47.656;11.310;2023-05-07T14:32:26;2.00;;;1.42;;
75050;SDS011;63628;47.656;11.310;2023-05-07T14:34:53;3.00;;;1.65;;
75050;SDS011;63628;47.656;11.310;2023-05-07T14:37:19;4.55;;;1.23;;
75050;SDS011;63628;47.656;11.310;2023-05-07T14:39:46;2.10;;;0.82;;
75050;SDS011;63628;47.656;11.310;2023-05-07T14:42:15;2.42;;;0.65;;
75050;SDS011;63628;47.656;11.310;2023-05-07T14:44:44;10.23;;;1.30;;
75050;SDS011;63628;47.656;11.310;2023-05-07T14:49:38;2.97;;;1.45;;
75050;SDS011;63628;47.656;11.310;2023-05-07T14:52:05;2.40;;;1.60;;
75050;SDS011;63628;47.656;11.310;2023-05-07T14:54:33;2.67;;;1.55;;
75050;SDS011;63628;47.656;11.310;2023-05-07T14:57:04;1.85;;;1.63;;